Time;durP1;ratioP1;P1;durP2;ratioP2;P2;SDS_P1;SDS_P2;PMS_P1;PMS_P2;Temp;Humidity;BMP_temperature;BMP_pressure;BME280_temperature;BME280_humidity;BME280_pressure;Samples;Min_cycle;Max_cycle;Signal;HPM_P1;HPM_P2
2022/07/25 00:01:09;;;;;;;12.18;10.88;;;;;;;25.08;40.06;99184.66;5106326;28;20056;-74
2022/07/25 00:03:36;;;;;;;12.85;10.85;;;;;;;25.26;39.97;99216.88;5106334;28;20056;-74
2022/07/25 00:06:04;;;;;;;14.45;11.02;;;;;;;25.30;40.19;99207.38;5106178;28;20048;-74
2022/07/25 00:08:31;;;;;;;11.93;10.68;;;;;;;25.30;40.02;99206.53;5106527;28;20330;-74
2022/07/25 00:11:00;;;;;;;9.65;8.73;;;;;;;25.20;40.69;99215.75;5106724;28;20048;-74
2022/07/25 00:13:27;;;;;;;7.65;6.85;;;;;;;25.21;40.35;99211.16;5106092;28;20365;-74
2022/07/25 00:15:54;;;;;;;6.70;6.03;;;;;;;25.23;40.11;99206.41;5105872;28;20060;-74
2022/07/25 00:18:21;;;;;;;7.75;6.38;;;;;;;25.13;40.37;99189.53;5106005;28;20168;-74
2022/07/25 00:20:49;;;;;;;7.90;6.35;;;;;;;25.14;40.42;99207.50;5105920;28;20060;-74
2022/07/25 00:23:16;;;;;;;8.48;7.55;;;;;;;25.16;40.67;99203.56;5105475;28;20255;-74
2022/07/25 00:25:45;;;;;;;6.97;6.38;;;;;;;25.17;40.60;99201.72;5105554;28;20048;-74
2022/07/25 00:28:13;;;;;;;6.88;5.93;;;;;;;25.20;40.22;99190.50;5105879;28;20056;-74
2022/07/25 00:30:41;;;;;;;8.32;6.38;;;;;;;25.14;40.88;99202.06;5105594;28;20113;-74
2022/07/25 00:33:08;;;;;;;6.40;5.80;;;;;;;24.93;41.10;99200.00;5105711;28;20101;-74
2022/07/25 00:35:36;;;;;;;9.05;7.85;;;;;;;25.05;40.77;99200.44;5105380;28;20169;-74
2022/07/25 00:38:03;;;;;;;13.95;12.55;;;;;;;25.06;40.61;99196.72;5105483;28;20117;-74
2022/07/25 00:40:33;;;;;;;19.80;17.80;;;;;;;25.05;40.99;99190.44;5129661;27;20245;-74
2022/07/25 00:43:03;;;;;;;16.38;14.55;;;;;;;25.04;40.66;99185.19;5146854;27;20265;-74
2022/07/25 00:45:32;;;;;;;14.07;11.65;;;;;;;25.05;40.87;99184.19;5146806;27;20051;-74
2022/07/25 00:48:00;;;;;;;10.75;9.65;;;;;;;24.96;40.76;99180.66;5146677;27;20084;-74
2022/07/25 00:50:28;;;;;;;8.45;7.57;;;;;;;24.65;40.44;99148.19;5146689;27;20062;-74
2022/07/25 00:52:56;;;;;;;7.20;6.50;;;;;;;24.91;40.21;99185.78;5146371;27;20221;-74
2022/07/25 00:55:25;;;;;;;7.60;6.80;;;;;;;24.91;40.13;99188.47;5146642;27;20054;-74
2022/07/25 00:57:52;;;;;;;5.85;5.25;;;;;;;24.91;40.02;99185.78;5146539;27;20329;-73
2022/07/25 01:00:20;;;;;;;6.80;6.10;;;;;;;24.88;40.07;99188.84;5146662;27;20193;-74
2022/07/25 01:02:49;;;;;;;5.95;5.05;;;;;;;24.76;40.14;99190.28;5146572;27;20054;-73
2022/07/25 01:05:18;;;;;;;5.18;4.68;;;;;;;24.54;40.12;99159.41;5146680;27;20324;-73
2022/07/25 01:07:47;;;;;;;5.53;4.82;;;;;;;24.80;39.84;99186.19;5146717;27;20062;-73
2022/07/25 01:10:14;;;;;;;6.40;5.15;;;;;;;24.61;39.95;99158.50;5146546;27;20055;-73
2022/07/25 01:12:48;;;;;;;5.70;5.10;;;;;;;24.78;39.97;99180.09;5146186;27;20054;-73
2022/07/25 01:15:16;;;;;;;6.10;5.50;;;;;;;24.75;39.97;99177.75;5146284;27;20100;-73
2022/07/25 01:17:43;;;;;;;9.75;7.15;;;;;;;24.56;40.78;99179.88;5146071;27;20441;-73
2022/07/25 01:20:16;;;;;;;13.18;11.73;;;;;;;24.62;40.92;99181.03;5146216;27;20055;-74
2022/07/25 01:22:44;;;;;;;18.20;16.40;;;;;;;24.52;40.63;99159.56;5146138;27;20055;-74
2022/07/25 01:25:11;;;;;;;10.70;9.60;;;;;;;24.62;40.54;99187.28;5144960;28;20211;-73
2022/07/25 01:27:39;;;;;;;7.25;6.22;;;;;;;24.59;40.89;99168.69;5146073;27;20059;-74
2022/07/25 01:30:09;;;;;;;5.65;5.05;;;;;;;24.61;41.13;99173.91;5146201;28;20039;-74
2022/07/25 01:32:41;;;;;;;6.03;5.43;;;;;;;24.61;41.32;99173.91;5146022;27;20111;-74
2022/07/25 01:35:12;;;;;;;6.00;4.30;;;;;;;24.56;40.97;99173.59;5145787;27;20051;-74
2022/07/25 01:37:45;;;;;;;5.50;4.57;;;;;;;24.51;41.05;99167.88;5146257;27;20252;-74
2022/07/25 01:40:14;;;;;;;6.03;4.68;;;;;;;24.40;41.17;99166.41;5145974;27;20058;-74
2022/07/25 01:42:42;;;;;;;6.32;4.55;;;;;;;24.37;41.27;99169.47;5145668;27;20111;-74
2022/07/25 01:45:11;;;;;;;5.82;4.57;;;;;;;24.22;41.77;99163.97;5145846;27;20261;-74
2022/07/25 01:47:38;;;;;;;4.85;4.30;;;;;;;23.87;41.41;99104.88;5146404;27;20306;-74
2022/07/25 01:50:07;;;;;;;5.68;5.10;;;;;;;23.80;41.71;99093.06;5145869;28;20077;-74
2022/07/25 01:52:34;;;;;;;6.63;4.82;;;;;;;24.23;41.63;99159.41;5145879;27;20253;-74
2022/07/25 01:55:03;;;;;;;5.45;4.70;;;;;;;24.23;41.77;99156.69;5146139;27;20047;-73
2022/07/25 01:57:30;;;;;;;8.70;7.80;;;;;;;24.22;41.28;99163.13;5146032;27;20059;-74
2022/07/25 01:59:57;;;;;;;6.22;5.63;;;;;;;24.05;41.23;99127.16;5145919;27;20115;-74
2022/07/25 02:02:24;;;;;;;7.20;5.88;;;;;;;24.14;41.59;99152.34;5146017;27;20108;-74
2022/07/25 02:04:52;;;;;;;7.72;6.78;;;;;;;24.04;42.03;99152.53;5147215;27;20108;-74
2022/07/25 02:07:19;;;;;;;10.05;8.75;;;;;;;23.85;42.47;99161.88;5149645;27;20272;-74
2022/07/25 02:09:47;;;;;;;8.85;7.88;;;;;;;23.98;42.16;99161.34;5149153;27;20107;-74
2022/07/25 02:12:15;;;;;;;7.65;6.75;;;;;;;24.05;41.80;99159.63;5149188;27;20116;-74
2022/07/25 02:14:43;;;;;;;7.00;5.80;;;;;;;23.97;42.44;99160.53;5149457;27;20100;-74
2022/07/25 02:17:10;;;;;;;5.82;5.07;;;;;;;23.84;42.12;99160.19;5149364;27;20051;-74
2022/07/25 02:19:37;;;;;;;5.90;5.15;;;;;;;23.92;42.45;99162.03;5149096;27;20054;-74
2022/07/25 02:22:05;;;;;;;5.28;4.75;;;;;;;23.82;42.61;99155.97;5149277;27;20051;-73
2022/07/25 02:24:32;;;;;;;7.43;5.13;;;;;;;23.86;42.22;99158.16;5148973;27;20054;-74
2022/07/25 02:26:59;;;;;;;5.00;4.43;;;;;;;23.92;42.30;99157.47;5149292;27;20059;-74
2022/07/25 02:29:28;;;;;;;6.65;5.28;;;;;;;23.92;42.26;99157.47;5148934;27;20108;-74
2022/07/25 02:31:55;;;;;;;5.68;5.05;;;;;;;23.88;42.28;99156.13;5148961;27;20311;-74
2022/07/25 02:34:22;;;;;;;6.47;4.93;;;;;;;23.90;42.24;99161.34;5148877;27;20063;-74
2022/07/25 02:36:49;;;;;;;7.45;6.65;;;;;;;23.79;42.18;99135.50;5148582;27;20055;-74
2022/07/25 02:39:17;;;;;;;11.07;9.98;;;;;;;23.85;42.39;99164.59;5148981;27;20066;-74
2022/07/25 02:41:44;;;;;;;10.23;9.23;;;;;;;23.88;42.42;99160.69;5148311;27;20062;-74
2022/07/25 02:44:12;;;;;;;6.88;5.85;;;;;;;23.77;42.56;99161.91;5148707;27;20337;-73
2022/07/25 02:46:40;;;;;;;7.20;6.50;;;;;;;23.84;42.90;99159.34;5148667;27;20060;-74
2022/07/25 02:49:07;;;;;;;6.40;5.80;;;;;;;23.84;42.53;99162.06;5148553;27;20115;-74
2022/07/25 02:51:35;;;;;;;7.82;6.75;;;;;;;23.79;42.81;99161.72;5148632;27;20059;-74
2022/07/25 02:54:02;;;;;;;6.95;5.53;;;;;;;23.64;43.38;99157.03;5147452;27;20055;-74
2022/07/25 02:56:29;;;;;;;6.45;5.53;;;;;;;23.73;43.03;99157.00;5148318;27;20054;-74
2022/07/25 02:58:56;;;;;;;6.70;5.55;;;;;;;23.66;42.93;99146.03;5148557;27;20356;-74
2022/07/25 03:01:23;;;;;;;7.55;5.40;;;;;;;23.65;42.85;99136.22;5148380;27;20058;-74
2022/07/25 03:03:52;;;;;;;5.57;4.68;;;;;;;23.74;42.96;99153.28;5148253;27;20112;-73
2022/07/25 03:06:19;;;;;;;6.40;4.88;;;;;;;23.72;43.19;99153.47;5148040;27;20059;-74
2022/07/25 03:08:46;;;;;;;6.35;4.68;;;;;;;23.72;42.82;99149.91;5148380;27;20237;-74
2022/07/25 03:11:15;;;;;;;10.07;8.40;;;;;;;23.68;42.96;99152.13;5148427;27;20055;-74
2022/07/25 03:13:42;;;;;;;11.77;10.23;;;;;;;23.49;43.14;99149.78;5148353;27;20195;-74
2022/07/25 03:16:10;;;;;;;15.20;12.95;;;;;;;23.57;43.08;99157.91;5147725;27;20104;-73
2022/07/25 03:18:37;;;;;;;10.65;8.75;;;;;;;23.64;43.10;99153.47;5147697;27;20250;-74
2022/07/25 03:21:06;;;;;;;7.68;6.88;;;;;;;23.59;43.04;99151.28;5148077;27;20043;-74
2022/07/25 03:23:34;;;;;;;12.45;7.38;;;;;;;23.54;43.22;99144.72;5147767;27;20326;-74
2022/07/25 03:26:01;;;;;;;7.03;6.32;;;;;;;23.46;42.93;99139.31;5148044;27;20096;-74
2022/07/25 03:28:28;;;;;;;12.05;6.00;;;;;;;23.52;43.32;99149.47;5147714;27;20070;-73
2022/07/25 03:30:55;;;;;;;5.32;4.78;;;;;;;23.06;43.06;99068.06;5147897;27;20268;-74
2022/07/25 03:33:22;;;;;;;7.75;4.72;;;;;;;23.60;43.03;99146.72;5148066;27;20047;-74
2022/07/25 03:35:49;;;;;;;8.82;6.18;;;;;;;23.55;43.01;99141.84;5147813;27;20275;-74
2022/07/25 03:38:18;;;;;;;7.10;6.32;;;;;;;23.51;43.38;99151.31;5147630;27;20104;-74
2022/07/25 03:40:45;;;;;;;11.70;9.15;;;;;;;23.50;43.00;99133.41;5147295;27;20059;-74
2022/07/25 03:43:13;;;;;;;8.85;7.55;;;;;;;23.48;42.86;99140.84;5147252;27;20059;-74
2022/07/25 03:45:40;;;;;;;10.40;8.30;;;;;;;23.51;42.90;99134.25;5147674;27;20055;-73
2022/07/25 03:48:07;;;;;;;11.45;9.55;;;;;;;23.45;42.89;99137.63;5147627;27;20054;-73
2022/07/25 03:50:34;;;;;;;10.23;8.27;;;;;;;23.45;42.93;99143.88;5147591;27;20055;-74
2022/07/25 03:53:02;;;;;;;8.70;6.20;;;;;;;23.45;43.07;99143.88;5147393;27;20058;-74
2022/07/25 03:55:30;;;;;;;8.95;7.78;;;;;;;23.45;42.63;99138.47;5147541;27;20261;-74
2022/07/25 03:57:57;;;;;;;12.68;8.27;;;;;;;23.45;42.82;99140.34;5147179;27;20055;-74
2022/07/25 04:00:25;;;;;;;10.50;6.95;;;;;;;23.46;42.74;99144.72;5147431;27;20062;-73
2022/07/25 04:02:52;;;;;;;6.93;6.00;;;;;;;23.46;42.82;99150.13;5146944;27;20107;-74
2022/07/25 04:05:19;;;;;;;6.55;5.35;;;;;;;23.40;42.66;99145.41;5146919;27;20063;-74
2022/07/25 04:07:46;;;;;;;7.20;5.22;;;;;;;23.41;42.74;99149.81;5147128;27;20051;-74
2022/07/25 04:10:13;;;;;;;5.65;5.00;;;;;;;23.39;42.80;99149.13;5147283;27;20116;-73
2022/07/25 04:12:42;;;;;;;8.43;5.35;;;;;;;23.41;42.77;99142.53;5147091;27;20054;-74
2022/07/25 04:15:11;;;;;;;6.10;4.93;;;;;;;23.40;42.79;99148.13;5146934;27;20055;-74
2022/07/25 04:17:38;;;;;;;5.13;4.57;;;;;;;23.38;42.96;99137.47;5147107;27;20260;-74
2022/07/25 04:20:07;;;;;;;6.72;4.68;;;;;;;23.15;43.22;99134.59;5147174;27;20230;-74
2022/07/25 04:22:35;;;;;;;6.03;4.93;;;;;;;23.21;43.20;99138.47;5147037;27;20054;-74
2022/07/25 04:25:03;;;;;;;7.20;4.95;;;;;;;22.35;43.39;98990.38;5147108;27;20059;-74
2022/07/25 04:27:30;;;;;;;7.55;4.82;;;;;;;23.21;43.44;99117.69;5145595;27;20055;-74
2022/07/25 04:29:59;;;;;;;7.60;4.90;;;;;;;23.33;43.57;99138.00;5146812;27;20058;-74
2022/07/25 04:32:26;;;;;;;8.43;5.07;;;;;;;23.34;43.35;99134.28;5146950;27;20256;-74
2022/07/25 04:34:54;;;;;;;6.13;5.07;;;;;;;23.32;43.79;99130.06;5146727;27;20360;-74
2022/07/25 04:37:21;;;;;;;5.47;4.78;;;;;;;23.22;43.91;99123.94;5146674;27;20103;-74
2022/07/25 04:39:48;;;;;;;7.00;5.30;;;;;;;23.31;43.97;99131.91;5146274;27;20111;-74
2022/07/25 04:42:16;;;;;;;7.45;5.93;;;;;;;23.15;44.37;99114.84;5146714;27;20054;-74
2022/07/25 04:44:43;;;;;;;9.45;7.65;;;;;;;23.15;44.72;99110.28;5146572;27;20257;-74
2022/07/25 04:47:11;;;;;;;8.23;7.13;;;;;;;23.32;44.58;99132.75;5145769;27;20196;-73
2022/07/25 04:49:39;;;;;;;9.52;6.25;;;;;;;23.39;44.60;99135.63;5146532;27;20055;-74
2022/07/25 04:52:06;;;;;;;9.55;5.65;;;;;;;23.43;44.82;99145.91;5145714;28;20111;-74
2022/07/25 04:54:33;;;;;;;7.82;6.03;;;;;;;23.48;44.32;99138.13;5146308;28;20055;-74
2022/07/25 04:57:03;;;;;;;6.72;5.53;;;;;;;23.39;44.16;99116.69;5146492;27;20108;-74
2022/07/25 04:59:30;;;;;;;8.65;5.63;;;;;;;23.55;43.99;99133.72;5146063;27;20108;-74
2022/07/25 05:01:57;;;;;;;10.07;5.65;;;;;;;23.57;44.02;99130.84;5146545;27;20108;-74
2022/07/25 05:04:27;;;;;;;7.78;5.03;;;;;;;23.53;43.96;99141.16;5146400;27;20124;-74
2022/07/25 05:06:54;;;;;;;7.20;5.18;;;;;;;23.48;43.75;99132.72;5146545;27;20238;-74
2022/07/25 05:09:22;;;;;;;6.65;5.32;;;;;;;23.51;44.14;99126.97;5146560;27;20111;-74
2022/07/25 05:11:49;;;;;;;7.32;5.30;;;;;;;23.51;44.33;99128.84;5146549;27;20059;-74
2022/07/25 05:14:17;;;;;;;10.65;5.72;;;;;;;23.58;44.18;99127.13;5146221;27;20055;-74
2022/07/25 05:16:44;;;;;;;11.02;5.90;;;;;;;23.53;44.41;99127.66;5146418;27;20111;-74
2022/07/25 05:19:11;;;;;;;9.38;6.25;;;;;;;23.55;44.18;99119.34;5146473;27;20253;-74
2022/07/25 05:21:40;;;;;;;9.27;6.05;;;;;;;23.60;44.49;99122.38;5146416;27;20063;-75
2022/07/25 05:24:07;;;;;;;9.27;6.07;;;;;;;23.55;44.44;99117.50;5146600;27;20100;-74
2022/07/25 05:26:35;;;;;;;9.15;5.97;;;;;;;23.58;44.80;99117.16;5146384;27;20260;-74
2022/07/25 05:29:02;;;;;;;7.32;6.40;;;;;;;23.58;44.38;99113.59;5146184;27;20104;-74
2022/07/25 05:31:29;;;;;;;12.88;6.88;;;;;;;23.55;44.74;99122.06;5146119;27;20238;-74
2022/07/25 05:33:56;;;;;;;8.95;6.15;;;;;;;23.50;43.50;99113.63;5146368;27;20100;-74
2022/07/25 05:36:24;;;;;;;7.72;6.25;;;;;;;23.51;43.00;99112.59;5146226;27;20252;-74
2022/07/25 05:38:52;;;;;;;8.45;5.43;;;;;;;23.55;42.88;99109.38;5146232;27;20323;-74
2022/07/25 05:41:20;;;;;;;8.30;6.05;;;;;;;23.52;42.74;99106.19;5149485;27;20111;-73
2022/07/25 05:43:47;;;;;;;7.70;6.25;;;;;;;23.57;42.59;99111.91;5149737;27;20167;-74
2022/07/25 05:46:15;;;;;;;7.78;5.50;;;;;;;23.57;42.24;99109.22;5149894;27;20307;-74
2022/07/25 05:48:43;;;;;;;7.25;5.68;;;;;;;23.57;42.05;99111.91;5150135;27;20054;-74
2022/07/25 05:51:11;;;;;;;8.15;5.93;;;;;;;23.42;42.45;99106.38;5149688;27;20081;-74
2022/07/25 05:53:38;;;;;;;11.60;6.13;;;;;;;23.49;41.80;99104.66;5149950;27;20055;-74
2022/07/25 05:56:08;;;;;;;7.00;5.55;;;;;;;23.40;41.54;99100.28;5149649;27;20055;-74
2022/07/25 05:58:39;;;;;;;9.52;6.07;;;;;;;23.47;41.83;99111.25;5149818;27;20127;-74
2022/07/25 06:01:06;;;;;;;8.85;6.57;;;;;;;23.26;41.78;99058.59;5149454;27;20063;-74
2022/07/25 06:03:34;;;;;;;7.25;6.55;;;;;;;23.37;41.69;99092.53;5149421;27;20055;-74
2022/07/25 06:06:01;;;;;;;6.60;5.90;;;;;;;23.46;42.18;99101.47;5149193;27;20264;-74
2022/07/25 06:08:29;;;;;;;12.10;7.03;;;;;;;23.43;41.98;99101.81;5149537;27;20163;-74
2022/07/25 06:10:57;;;;;;;7.70;6.13;;;;;;;23.18;41.72;99063.13;5149266;27;20055;-74
2022/07/25 06:13:26;;;;;;;10.30;6.40;;;;;;;23.51;41.11;99102.63;5149404;27;20043;-74
2022/07/25 06:15:54;;;;;;;7.82;6.00;;;;;;;23.51;41.17;99101.78;5149271;27;20054;-74
2022/07/25 06:18:21;;;;;;;6.80;5.13;;;;;;;23.48;41.40;99099.44;5149090;27;20111;-74
2022/07/25 06:20:48;;;;;;;6.82;5.70;;;;;;;23.42;40.99;99103.66;5149268;27;20039;-74
2022/07/25 06:23:16;;;;;;;9.25;6.07;;;;;;;23.44;40.96;99103.50;5149135;27;20252;-73
2022/07/25 06:25:43;;;;;;;7.88;5.93;;;;;;;23.32;41.18;99103.00;5149316;27;20055;-74
2022/07/25 06:28:10;;;;;;;8.25;6.10;;;;;;;23.51;41.30;99091.81;5148724;27;20217;-74
2022/07/25 06:30:39;;;;;;;6.05;5.45;;;;;;;23.53;41.12;99088.94;5149052;27;20360;-74
2022/07/25 06:33:06;;;;;;;6.57;5.88;;;;;;;23.59;41.13;99080.13;5148900;27;20062;-73
2022/07/25 06:35:33;;;;;;;17.15;6.93;;;;;;;23.58;40.69;99091.97;5148999;27;20241;-74
2022/07/25 06:38:00;;;;;;;10.20;6.68;;;;;;;23.57;41.04;99087.56;5148679;27;20190;-74
2022/07/25 06:40:27;;;;;;;8.50;6.10;;;;;;;23.67;40.66;99080.94;5148634;27;20254;-74
2022/07/25 06:42:55;;;;;;;8.88;6.80;;;;;;;23.15;41.02;98995.91;5148776;27;20120;-74
2022/07/25 06:45:23;;;;;;;8.15;6.70;;;;;;;23.72;41.06;99080.41;5148714;27;20055;-74
2022/07/25 06:47:51;;;;;;;7.20;6.18;;;;;;;23.68;40.79;99077.22;5148736;27;20096;-74
2022/07/25 06:50:19;;;;;;;9.07;5.30;;;;;;;23.73;41.17;99068.56;5147877;27;20320;-74
2022/07/25 06:52:46;;;;;;;9.80;7.43;;;;;;;23.61;41.65;99078.94;5148652;27;20213;-74
2022/07/25 06:55:15;;;;;;;8.82;6.60;;;;;;;23.75;41.27;99076.50;5147394;27;20096;-74
2022/07/25 06:57:43;;;;;;;7.93;7.03;;;;;;;23.85;41.54;99067.16;5147268;27;20095;-74
2022/07/25 07:00:13;;;;;;;8.95;6.40;;;;;;;23.98;41.64;99056.66;5148326;27;20055;-74
2022/07/25 07:02:54;;;;;;;12.05;7.35;;;;;;;24.07;41.88;99053.88;5148213;27;20085;-74
2022/07/25 07:05:23;;;;;;;11.23;6.93;;;;;;;24.23;41.48;99060.06;5148379;27;20092;-74
2022/07/25 07:07:50;;;;;;;8.15;6.53;;;;;;;24.37;41.13;99047.59;5148296;27;20100;-74
2022/07/25 07:10:18;;;;;;;8.15;6.25;;;;;;;24.57;40.32;99048.81;5148174;27;20066;-74
2022/07/25 07:12:46;;;;;;;7.32;5.45;;;;;;;24.64;39.95;99047.06;5147841;27;20063;-74
2022/07/25 07:15:14;;;;;;;7.75;5.38;;;;;;;24.84;39.32;99043.88;5147847;27;20188;-74
2022/07/25 07:17:41;;;;;;;13.05;5.68;;;;;;;24.99;39.47;99019.50;5148572;27;20062;-74
2022/07/25 07:20:11;;;;;;;8.48;6.07;;;;;;;25.32;39.05;99034.47;5147792;27;20050;-74
2022/07/25 07:22:44;;;;;;;6.93;5.03;;;;;;;25.16;39.00;98983.94;5147397;27;20096;-74
2022/07/25 07:25:13;;;;;;;10.25;4.93;;;;;;;25.75;38.14;99034.63;5147620;27;20051;-74
2022/07/25 07:27:40;;;;;;;6.07;4.70;;;;;;;25.72;37.29;99033.13;5147809;27;20055;-74
2022/07/25 07:30:09;;;;;;;5.45;4.80;;;;;;;25.91;36.70;99027.09;5147693;27;20319;-74
2022/07/25 07:32:36;;;;;;;9.48;4.55;;;;;;;26.16;37.17;99029.50;5147810;27;20320;-74
2022/07/25 07:35:04;;;;;;;8.25;4.75;;;;;;;26.41;36.19;99000.94;5147507;27;20055;-74
2022/07/25 07:37:32;;;;;;;6.13;3.85;;;;;;;26.70;35.61;99021.72;5147432;27;20047;-74
2022/07/25 07:40:00;;;;;;;9.75;3.88;;;;;;;25.89;34.16;98904.28;5147079;27;20099;-74
2022/07/25 07:42:27;;;;;;;6.88;3.83;;;;;;;26.68;35.03;99018.34;5147148;27;20055;-74
2022/07/25 07:44:54;;;;;;;6.53;4.10;;;;;;;26.70;34.64;99016.28;5147265;27;20108;-74
2022/07/25 07:47:21;;;;;;;9.15;3.83;;;;;;;27.02;34.46;99014.00;5147663;27;20051;-74
2022/07/25 07:49:49;;;;;;;4.90;3.55;;;;;;;27.16;33.84;99016.63;5147562;27;20055;-74
2022/07/25 07:52:16;;;;;;;6.07;3.85;;;;;;;27.35;33.18;99020.53;5147001;27;20260;-74
2022/07/25 07:57:29;;;;;;;5.35;3.10;;;;;;;27.47;33.10;99008.03;5147411;27;20061;-74
2022/07/25 07:59:56;;;;;;;4.63;3.60;;;;;;;27.65;33.06;99010.25;5147182;27;20222;-74
2022/07/25 08:02:24;;;;;;;7.00;3.85;;;;;;;27.69;33.15;98999.81;5145593;27;20043;-74
2022/07/25 08:04:51;;;;;;;4.55;3.10;;;;;;;27.87;32.44;98993.84;5147197;27;20311;-74
2022/07/25 08:07:18;;;;;;;7.80;3.38;;;;;;;28.03;32.37;98988.84;5146984;27;20047;-74
2022/07/25 08:09:47;;;;;;;6.18;3.30;;;;;;;28.06;31.57;98980.28;5147179;27;20307;-74
2022/07/25 08:12:14;;;;;;;4.10;2.78;;;;;;;28.06;31.92;98965.81;5146758;27;20055;-74
2022/07/25 08:14:42;;;;;;;7.38;3.40;;;;;;;28.27;31.89;98987.44;5146674;27;20100;-74
2022/07/25 08:17:09;;;;;;;7.68;3.55;;;;;;;28.41;31.22;98978.22;5146665;27;20055;-74
2022/07/25 08:19:36;;;;;;;6.20;3.38;;;;;;;28.38;31.51;98972.34;5146654;27;20055;-74
2022/07/25 08:22:03;;;;;;;9.68;3.90;;;;;;;28.40;31.10;98975.72;5146961;27;20100;-74
2022/07/25 08:24:30;;;;;;;4.38;3.60;;;;;;;28.51;30.17;98977.00;5146721;27;20075;-74
2022/07/25 08:26:59;;;;;;;6.32;3.53;;;;;;;28.56;30.26;98967.16;5146858;27;20059;-74
2022/07/25 08:29:26;;;;;;;3.67;2.90;;;;;;;28.61;30.45;98956.47;5147108;27;20120;-74
2022/07/25 08:31:53;;;;;;;5.40;2.90;;;;;;;28.65;30.96;98956.88;5146763;27;20059;-74
2022/07/25 08:34:21;;;;;;;6.88;3.38;;;;;;;28.58;30.58;98945.16;5146410;27;20062;-74
2022/07/25 08:36:48;;;;;;;5.95;2.95;;;;;;;28.80;30.86;98953.94;5146610;27;20104;-74
2022/07/25 08:39:15;;;;;;;5.35;3.60;;;;;;;28.93;30.42;98949.31;5146663;27;20244;-74
2022/07/25 08:41:43;;;;;;;7.55;3.95;;;;;;;29.07;30.42;98958.34;5146027;27;20055;-74
2022/07/25 08:44:14;;;;;;;6.60;3.65;;;;;;;29.16;29.28;98948.03;5146378;27;20051;-74
2022/07/25 08:46:41;;;;;;;5.20;3.50;;;;;;;28.76;30.04;98886.19;5146423;27;20112;-74
2022/07/25 08:49:09;;;;;;;5.80;3.53;;;;;;;29.11;30.67;98932.28;5146028;27;20059;-74
2022/07/25 08:51:37;;;;;;;4.70;3.55;;;;;;;29.16;29.98;98931.66;5146519;27;20108;-74
2022/07/25 08:54:04;;;;;;;4.10;3.03;;;;;;;29.26;29.21;98938.34;5145702;27;20058;-74
2022/07/25 08:56:32;;;;;;;3.67;2.75;;;;;;;29.35;29.05;98917.09;5145879;27;20113;-75
2022/07/25 08:58:59;;;;;;;7.60;3.47;;;;;;;29.67;29.09;98916.16;5145985;27;20160;-74
2022/07/25 09:01:29;;;;;;;6.00;3.45;;;;;;;29.74;28.83;98905.19;5146452;27;20062;-74
2022/07/25 09:03:57;;;;;;;6.10;3.70;;;;;;;29.81;29.30;98919.66;5146225;27;20343;-74
2022/07/25 09:06:24;;;;;;;6.07;3.95;;;;;;;29.79;29.48;98915.44;5146655;27;20103;-74
2022/07/25 09:08:53;;;;;;;6.70;3.78;;;;;;;29.62;29.14;98917.84;5146227;27;20229;-74
2022/07/25 09:11:31;;;;;;;6.00;3.88;;;;;;;29.57;28.52;98913.00;5146076;27;20055;-74
2022/07/25 09:14:03;;;;;;;6.28;3.97;;;;;;;29.75;28.35;98909.59;5148204;27;20267;-74
2022/07/25 09:16:34;;;;;;;4.93;3.55;;;;;;;29.71;29.17;98917.38;5150441;27;20039;-74
2022/07/25 09:19:12;;;;;;;5.55;3.72;;;;;;;29.84;28.89;98893.78;5150398;27;20035;-74
2022/07/25 09:21:41;;;;;;;7.35;3.90;;;;;;;29.99;29.53;98897.88;5150115;27;20108;-75
2022/07/25 09:24:10;;;;;;;10.35;3.90;;;;;;;30.11;29.26;98895.28;5150177;27;20075;-74
2022/07/25 09:26:49;;;;;;;4.88;4.22;;;;;;;30.25;27.83;98893.34;5149841;27;20108;-75
2022/07/25 09:29:18;;;;;;;3.97;3.58;;;;;;;30.03;28.63;98884.63;5149883;27;20062;-74
2022/07/25 09:31:47;;;;;;;4.88;3.55;;;;;;;29.76;28.02;98815.69;5149968;27;20119;-75
2022/07/25 09:34:17;;;;;;;7.40;3.83;;;;;;;30.20;28.30;98880.31;5149963;27;20047;-75
2022/07/25 09:36:53;;;;;;;4.40;3.88;;;;;;;30.08;28.55;98852.00;5149976;27;20055;-74
2022/07/25 09:39:20;;;;;;;7.80;4.45;;;;;;;30.31;28.95;98868.69;5149755;27;20055;-74
2022/07/25 09:41:48;;;;;;;5.03;3.90;;;;;;;30.44;29.69;98866.91;5149497;27;20100;-75
2022/07/25 09:44:16;;;;;;;7.63;4.13;;;;;;;30.62;28.44;98873.25;5149510;27;20054;-75
2022/07/25 09:46:44;;;;;;;4.90;4.10;;;;;;;30.67;28.90;98856.16;5149355;27;20384;-75
2022/07/25 09:49:13;;;;;;;5.65;4.28;;;;;;;30.81;29.73;98859.63;5149188;27;20051;-75
2022/07/25 09:51:41;;;;;;;5.30;4.28;;;;;;;30.74;29.73;98865.16;5148660;27;20043;-75
2022/07/25 09:54:08;;;;;;;5.03;4.35;;;;;;;30.40;30.30;98809.09;5149751;27;20299;-75
2022/07/25 09:56:36;;;;;;;6.65;4.95;;;;;;;30.30;29.76;98811.50;5149654;27;20047;-75
2022/07/25 09:59:06;;;;;;;7.55;4.13;;;;;;;30.68;29.95;98868.75;5149210;27;20148;-75
2022/07/25 10:01:36;;;;;;;8.48;5.45;;;;;;;30.60;29.95;98860.84;5149392;27;20042;-75
2022/07/25 10:04:13;;;;;;;6.70;4.35;;;;;;;30.74;29.91;98865.16;5148730;27;20300;-75
2022/07/25 10:06:50;;;;;;;6.07;5.07;;;;;;;30.84;30.23;98861.91;5149413;27;20307;-76
2022/07/25 10:09:18;;;;;;;10.23;4.45;;;;;;;30.77;30.59;98863.88;5149547;27;20051;-75
2022/07/25 10:12:04;;;;;;;7.50;4.82;;;;;;;30.65;30.09;98853.66;5148126;27;20053;-76
2022/07/25 10:14:33;;;;;;;7.43;4.95;;;;;;;30.64;30.82;98848.41;5149300;27;20065;-76
2022/07/25 10:17:01;;;;;;;5.85;4.50;;;;;;;30.30;30.78;98817.81;5147661;27;20051;-74
2022/07/25 10:19:42;;;;;;;4.60;4.07;;;;;;;30.57;30.53;98851.19;5148804;27;20104;-75
2022/07/25 10:22:12;;;;;;;5.25;4.63;;;;;;;30.58;30.35;98806.38;5149013;27;20055;-75
2022/07/25 10:24:44;;;;;;;19.30;6.13;;;;;;;30.50;30.81;98819.53;5148051;27;20096;-73
2022/07/25 10:27:13;;;;;;;6.97;4.97;;;;;;;30.67;31.35;98842.47;5148388;27;20096;-72
2022/07/25 10:29:41;;;;;;;7.93;5.10;;;;;;;30.55;31.20;98847.03;5148468;27;20068;-73
2022/07/25 10:32:11;;;;;;;6.25;4.80;;;;;;;30.51;31.68;98845.81;5148621;27;20055;-73
2022/07/25 10:34:39;;;;;;;5.90;4.97;;;;;;;30.51;31.32;98832.97;5148597;27;20055;-73
2022/07/25 10:37:12;;;;;;;7.55;4.80;;;;;;;30.25;31.85;98782.13;5148569;27;20043;-73
2022/07/25 10:39:41;;;;;;;7.55;4.95;;;;;;;30.72;31.64;98826.25;5148172;27;20051;-73
2022/07/25 10:42:14;;;;;;;24.45;6.03;;;;;;;30.68;31.67;98816.81;5148647;27;20066;-73
2022/07/25 10:44:43;;;;;;;5.55;4.93;;;;;;;30.77;31.52;98820.09;5148358;27;20127;-73
2022/07/25 10:47:12;;;;;;;5.47;4.72;;;;;;;30.77;31.44;98790.00;5148211;27;20136;-73
2022/07/25 10:49:41;;;;;;;7.65;4.40;;;;;;;30.61;31.53;98769.56;5148200;27;20055;-73
2022/07/25 10:52:17;;;;;;;5.18;4.60;;;;;;;30.98;30.87;98806.81;5147984;27;20047;-73
2022/07/25 10:54:53;;;;;;;5.38;4.82;;;;;;;31.05;31.01;98789.47;5148292;27;20054;-72
2022/07/25 10:57:21;;;;;;;5.88;4.85;;;;;;;30.30;31.22;98672.94;5149082;27;20055;-71
2022/07/25 10:59:49;;;;;;;5.97;4.82;;;;;;;31.04;31.16;98796.84;5148249;27;20039;-72
2022/07/25 11:02:17;;;;;;;5.97;4.57;;;;;;;30.96;31.15;98797.16;5148427;27;20104;-72
2022/07/25 11:04:46;;;;;;;7.57;4.68;;;;;;;30.91;31.41;98791.53;5148134;27;20055;-72
2022/07/25 11:07:17;;;;;;;8.68;4.80;;;;;;;30.89;31.49;98760.84;5148259;27;20311;-72
2022/07/25 11:09:55;;;;;;;5.22;4.63;;;;;;;30.81;31.02;98761.97;5148331;27;20051;-73
2022/07/25 11:12:23;;;;;;;7.55;4.55;;;;;;;30.90;31.03;98779.75;5148268;27;20051;-72
2022/07/25 11:14:50;;;;;;;6.60;5.05;;;;;;;30.86;31.21;98777.69;5148305;27;20055;-71
2022/07/25 11:17:21;;;;;;;6.88;4.97;;;;;;;30.87;30.71;98762.97;5147861;27;20062;-72
2022/07/25 11:19:55;;;;;;;5.25;4.75;;;;;;;30.95;30.63;98773.59;5147754;27;20055;-72
2022/07/25 11:22:25;;;;;;;6.40;4.68;;;;;;;30.94;31.21;98741.81;5148003;27;20084;-72
2022/07/25 11:24:52;;;;;;;6.35;4.90;;;;;;;31.13;31.37;98762.63;5147984;27;20076;-72
2022/07/25 11:27:24;;;;;;;6.00;4.28;;;;;;;31.36;30.88;98747.38;5148001;27;20383;-72
2022/07/25 11:29:51;;;;;;;5.65;4.75;;;;;;;31.29;30.90;98761.16;5147361;27;20051;-72
2022/07/25 11:32:19;;;;;;;7.68;5.15;;;;;;;31.35;30.61;98745.69;5148052;27;20107;-72
2022/07/25 11:34:49;;;;;;;5.55;4.43;;;;;;;31.07;30.76;98722.50;5147796;27;20130;-72
2022/07/25 11:37:17;;;;;;;6.07;4.72;;;;;;;31.01;30.66;98700.69;5147586;27;20069;-72
2022/07/25 11:39:47;;;;;;;5.32;4.82;;;;;;;31.16;30.33;98688.25;5147054;27;20062;-72